sensor_id;sensor_type;location;lat;lon;timestamp;temperature;humidity
34568;DHT22;20806;50.746;7.116;2023-03-19T00:01:44;13.30;99.90
34568;DHT22;20806;50.746;7.116;2023-03-19T00:04:11;13.30;99.90
34568;DHT22;20806;50.746;7.116;2023-03-19T00:06:36;13.30;99.90
34568;DHT22;20806;50.746;7.116;2023-03-19T00:09:02;13.30;99.90
34568;DHT22;20806;50.746;7.116;2023-03-19T00:11:28;13.30;99.90
34568;DHT22;20806;50.746;7.116;2023-03-19T00:13:53;13.30;99.90
34568;DHT22;20806;50.746;7.116;2023-03-19T00:16:19;13.20;99.90
34568;DHT22;20806;50.746;7.116;2023-03-19T00:18:44;13.20;99.90
34568;DHT22;20806;50.746;7.116;2023-03-19T00:21:10;13.20;99.90
34568;DHT22;20806;50.746;7.116;2023-03-19T00:23:35;13.20;99.90
34568;DHT22;20806;50.746;7.116;2023-03-19T00:26:01;13.20;99.90
34568;DHT22;20806;50.746;7.116;2023-03-19T00:28:28;13.20;99.90
34568;DHT22;20806;50.746;7.116;2023-03-19T00:30:53;13.20;99.90
34568;DHT22;20806;50.746;7.116;2023-03-19T00:33:19;13.20;99.90
34568;DHT22;20806;50.746;7.116;2023-03-19T00:35:44;13.20;99.90
34568;DHT22;20806;50.746;7.116;2023-03-19T00:38:10;13.30;99.90
34568;DHT22;20806;50.746;7.116;2023-03-19T00:40:36;13.20;99.90
34568;DHT22;20806;50.746;7.116;2023-03-19T00:43:01;13.20;99.90
34568;DHT22;20806;50.746;7.116;2023-03-19T00:45:27;13.10;99.90
34568;DHT22;20806;50.746;7.116;2023-03-19T00:47:55;13.10;99.90
34568;DHT22;20806;50.746;7.116;2023-03-19T00:50:20;13.20;99.90
34568;DHT22;20806;50.746;7.116;2023-03-19T00:52:46;13.10;99.90
34568;DHT22;20806;50.746;7.116;2023-03-19T00:55:11;13.10;99.90
34568;DHT22;20806;50.746;7.116;2023-03-19T00:57:37;13.00;99.90
34568;DHT22;20806;50.746;7.116;2023-03-19T01:00:03;13.00;99.90
34568;DHT22;20806;50.746;7.116;2023-03-19T01:02:29;13.00;99.90
34568;DHT22;20806;50.746;7.116;2023-03-19T01:04:55;13.00;99.90
34568;DHT22;20806;50.746;7.116;2023-03-19T01:07:20;13.00;99.90
34568;DHT22;20806;50.746;7.116;2023-03-19T01:09:46;13.00;99.90
34568;DHT22;20806;50.746;7.116;2023-03-19T01:12:11;12.90;99.90
34568;DHT22;20806;50.746;7.116;2023-03-19T01:14:37;12.90;99.90
34568;DHT22;20806;50.746;7.116;2023-03-19T01:17:03;12.90;99.90
34568;DHT22;20806;50.746;7.116;2023-03-19T01:19:28;12.90;99.90
34568;DHT22;20806;50.746;7.116;2023-03-19T01:21:54;12.90;99.90
34568;DHT22;20806;50.746;7.116;2023-03-19T01:24:19;12.90;99.90
34568;DHT22;20806;50.746;7.116;2023-03-19T01:26:45;12.90;99.90
34568;DHT22;20806;50.746;7.116;2023-03-19T01:29:11;12.90;99.90
34568;DHT22;20806;50.746;7.116;2023-03-19T01:31:36;12.80;99.90
34568;DHT22;20806;50.746;7.116;2023-03-19T01:34:02;12.80;99.90
34568;DHT22;20806;50.746;7.116;2023-03-19T01:36:28;12.80;99.90
34568;DHT22;20806;50.746;7.116;2023-03-19T01:38:53;12.80;99.90
34568;DHT22;20806;50.746;7.116;2023-03-19T01:41:19;12.70;99.90
34568;DHT22;20806;50.746;7.116;2023-03-19T01:43:45;12.70;99.90
34568;DHT22;20806;50.746;7.116;2023-03-19T01:46:18;12.60;99.90
34568;DHT22;20806;50.746;7.116;2023-03-19T01:48:45;12.60;99.90
34568;DHT22;20806;50.746;7.116;2023-03-19T01:51:13;12.50;99.90
34568;DHT22;20806;50.746;7.116;2023-03-19T01:53:40;12.50;99.90
34568;DHT22;20806;50.746;7.116;2023-03-19T01:56:10;12.50;99.90
34568;DHT22;20806;50.746;7.116;2023-03-19T01:58:37;12.50;99.90
34568;DHT22;20806;50.746;7.116;2023-03-19T02:01:04;12.40;99.90
34568;DHT22;20806;50.746;7.116;2023-03-19T02:03:30;12.40;99.90
34568;DHT22;20806;50.746;7.116;2023-03-19T02:05:55;12.40;99.90
34568;DHT22;20806;50.746;7.116;2023-03-19T02:08:22;12.40;99.90
34568;DHT22;20806;50.746;7.116;2023-03-19T02:10:48;12.40;99.90
34568;DHT22;20806;50.746;7.116;2023-03-19T02:13:14;12.30;99.90
34568;DHT22;20806;50.746;7.116;2023-03-19T02:15:40;12.30;99.90
34568;DHT22;20806;50.746;7.116;2023-03-19T02:18:06;12.30;99.90
34568;DHT22;20806;50.746;7.116;2023-03-19T02:23:06;12.30;99.90
34568;DHT22;20806;50.746;7.116;2023-03-19T02:25:36;12.30;99.90
34568;DHT22;20806;50.746;7.116;2023-03-19T02:28:04;12.30;99.90
34568;DHT22;20806;50.746;7.116;2023-03-19T02:30:32;12.40;99.90
34568;DHT22;20806;50.746;7.116;2023-03-19T02:32:57;12.30;99.90
34568;DHT22;20806;50.746;7.116;2023-03-19T02:35:23;12.30;99.90
34568;DHT22;20806;50.746;7.116;2023-03-19T02:37:49;12.40;99.90
34568;DHT22;20806;50.746;7.116;2023-03-19T02:40:17;12.40;99.90
34568;DHT22;20806;50.746;7.116;2023-03-19T02:42:44;12.40;99.90
34568;DHT22;20806;50.746;7.116;2023-03-19T02:45:10;12.40;99.90
34568;DHT22;20806;50.746;7.116;2023-03-19T02:47:35;12.40;99.90
34568;DHT22;20806;50.746;7.116;2023-03-19T02:50:01;12.40;99.90
34568;DHT22;20806;50.746;7.116;2023-03-19T02:52:26;12.40;99.90
34568;DHT22;20806;50.746;7.116;2023-03-19T02:54:52;12.50;99.90
34568;DHT22;20806;50.746;7.116;2023-03-19T02:57:17;12.50;99.90
34568;DHT22;20806;50.746;7.116;2023-03-19T02:59:43;12.50;99.90
34568;DHT22;20806;50.746;7.116;2023-03-19T03:02:08;12.50;99.90
34568;DHT22;20806;50.746;7.116;2023-03-19T03:04:34;12.50;99.90
34568;DHT22;20806;50.746;7.116;2023-03-19T03:07:01;12.50;99.90
34568;DHT22;20806;50.746;7.116;2023-03-19T03:09:27;12.60;99.90
34568;DHT22;20806;50.746;7.116;2023-03-19T03:11:53;12.50;99.90
34568;DHT22;20806;50.746;7.116;2023-03-19T03:14:18;12.50;99.90
34568;DHT22;20806;50.746;7.116;2023-03-19T03:16:44;12.50;99.90
34568;DHT22;20806;50.746;7.116;2023-03-19T03:19:09;12.50;99.90
34568;DHT22;20806;50.746;7.116;2023-03-19T03:21:35;12.50;99.90
34568;DHT22;20806;50.746;7.116;2023-03-19T03:24:01;12.50;99.90
34568;DHT22;20806;50.746;7.116;2023-03-19T03:26:26;12.50;99.90
34568;DHT22;20806;50.746;7.116;2023-03-19T03:28:52;12.50;99.90
34568;DHT22;20806;50.746;7.116;2023-03-19T03:31:18;12.50;99.90
34568;DHT22;20806;50.746;7.116;2023-03-19T03:33:43;12.50;99.90
34568;DHT22;20806;50.746;7.116;2023-03-19T03:36:10;12.50;99.90
34568;DHT22;20806;50.746;7.116;2023-03-19T03:38:36;12.60;99.90
34568;DHT22;20806;50.746;7.116;2023-03-19T03:41:02;12.50;99.90
34568;DHT22;20806;50.746;7.116;2023-03-19T03:43:27;12.40;99.90
34568;DHT22;20806;50.746;7.116;2023-03-19T03:45:53;12.50;99.90
34568;DHT22;20806;50.746;7.116;2023-03-19T03:48:18;12.30;99.90
34568;DHT22;20806;50.746;7.116;2023-03-19T03:50:44;12.30;99.90
34568;DHT22;20806;50.746;7.116;2023-03-19T03:53:10;12.20;99.90
34568;DHT22;20806;50.746;7.116;2023-03-19T03:55:37;12.30;99.90
34568;DHT22;20806;50.746;7.116;2023-03-19T03:58:02;12.20;99.90
34568;DHT22;20806;50.746;7.116;2023-03-19T04:00:28;12.20;99.90
34568;DHT22;20806;50.746;7.116;2023-03-19T04:02:54;12.20;99.90
34568;DHT22;20806;50.746;7.116;2023-03-19T04:05:20;12.20;99.90
34568;DHT22;20806;50.746;7.116;2023-03-19T04:07:46;12.10;99.90
34568;DHT22;20806;50.746;7.116;2023-03-19T04:10:12;12.20;99.90
34568;DHT22;20806;50.746;7.116;2023-03-19T04:12:38;12.10;99.90
34568;DHT22;20806;50.746;7.116;2023-03-19T04:15:04;12.20;99.90
34568;DHT22;20806;50.746;7.116;2023-03-19T04:17:30;12.20;99.90
34568;DHT22;20806;50.746;7.116;2023-03-19T04:19:56;12.10;99.90
34568;DHT22;20806;50.746;7.116;2023-03-19T04:22:21;12.10;99.90
34568;DHT22;20806;50.746;7.116;2023-03-19T04:24:47;12.10;99.90
34568;DHT22;20806;50.746;7.116;2023-03-19T04:27:12;12.10;99.90
34568;DHT22;20806;50.746;7.116;2023-03-19T04:29:38;12.10;99.90
34568;DHT22;20806;50.746;7.116;2023-03-19T04:32:03;12.10;99.90
34568;DHT22;20806;50.746;7.116;2023-03-19T04:34:29;12.10;99.90
34568;DHT22;20806;50.746;7.116;2023-03-19T04:36:55;12.10;99.90
34568;DHT22;20806;50.746;7.116;2023-03-19T04:39:20;12.10;99.90
34568;DHT22;20806;50.746;7.116;2023-03-19T04:41:46;12.10;99.90
34568;DHT22;20806;50.746;7.116;2023-03-19T04:44:11;12.20;99.90
34568;DHT22;20806;50.746;7.116;2023-03-19T04:46:37;12.20;99.90
34568;DHT22;20806;50.746;7.116;2023-03-19T04:49:03;12.20;99.90
34568;DHT22;20806;50.746;7.116;2023-03-19T04:51:28;12.20;99.90
34568;DHT22;20806;50.746;7.116;2023-03-19T04:53:54;12.10;99.90
34568;DHT22;20806;50.746;7.116;2023-03-19T04:56:20;12.20;99.90
34568;DHT22;20806;50.746;7.116;2023-03-19T04:58:46;12.20;99.90
34568;DHT22;20806;50.746;7.116;2023-03-19T05:01:11;12.20;99.90
34568;DHT22;20806;50.746;7.116;2023-03-19T05:03:37;12.20;99.90
34568;DHT22;20806;50.746;7.116;2023-03-19T05:06:02;12.20;99.90
34568;DHT22;20806;50.746;7.116;2023-03-19T05:08:28;12.10;99.90
34568;DHT22;20806;50.746;7.116;2023-03-19T05:10:54;12.10;99.90
34568;DHT22;20806;50.746;7.116;2023-03-19T05:13:19;12.00;99.90
34568;DHT22;20806;50.746;7.116;2023-03-19T05:15:45;12.00;99.90
34568;DHT22;20806;50.746;7.116;2023-03-19T05:18:11;12.00;99.90
34568;DHT22;20806;50.746;7.116;2023-03-19T05:20:36;12.00;99.90
34568;DHT22;20806;50.746;7.116;2023-03-19T05:23:02;11.90;99.90
34568;DHT22;20806;50.746;7.116;2023-03-19T05:25:28;12.00;99.90
34568;DHT22;20806;50.746;7.116;2023-03-19T05:27:54;12.00;99.90
34568;DHT22;20806;50.746;7.116;2023-03-19T05:30:20;12.00;99.90
34568;DHT22;20806;50.746;7.116;2023-03-19T05:32:45;12.00;99.90
34568;DHT22;20806;50.746;7.116;2023-03-19T05:35:11;12.00;99.90
34568;DHT22;20806;50.746;7.116;2023-03-19T05:37:37;12.10;99.90
34568;DHT22;20806;50.746;7.116;2023-03-19T05:40:03;12.10;99.90
34568;DHT22;20806;50.746;7.116;2023-03-19T05:42:29;12.20;99.90
34568;DHT22;20806;50.746;7.116;2023-03-19T05:44:55;12.20;99.90
34568;DHT22;20806;50.746;7.116;2023-03-19T05:47:20;12.20;99.90
34568;DHT22;20806;50.746;7.116;2023-03-19T05:49:46;12.20;99.90
34568;DHT22;20806;50.746;7.116;2023-03-19T05:52:11;12.20;99.90
34568;DHT22;20806;50.746;7.116;2023-03-19T05:54:37;12.20;99.90
34568;DHT22;20806;50.746;7.116;2023-03-19T05:57:02;12.20;99.90
34568;DHT22;20806;50.746;7.116;2023-03-19T05:59:28;12.20;99.90
34568;DHT22;20806;50.746;7.116;2023-03-19T06:01:54;12.20;99.90
34568;DHT22;20806;50.746;7.116;2023-03-19T06:04:19;12.20;99.90
34568;DHT22;20806;50.746;7.116;2023-03-19T06:06:45;12.30;99.90
34568;DHT22;20806;50.746;7.116;2023-03-19T06:09:11;12.30;99.90
34568;DHT22;20806;50.746;7.116;2023-03-19T06:11:37;12.30;99.90
34568;DHT22;20806;50.746;7.116;2023-03-19T06:14:05;12.30;99.90
34568;DHT22;20806;50.746;7.116;2023-03-19T06:16:31;12.30;99.90
34568;DHT22;20806;50.746;7.116;2023-03-19T06:18:57;12.30;99.90
34568;DHT22;20806;50.746;7.116;2023-03-19T06:21:22;12.40;99.90
34568;DHT22;20806;50.746;7.116;2023-03-19T06:23:50;12.30;99.90
34568;DHT22;20806;50.746;7.116;2023-03-19T06:26:15;12.30;99.90
34568;DHT22;20806;50.746;7.116;2023-03-19T06:28:41;12.40;99.90
34568;DHT22;20806;50.746;7.116;2023-03-19T06:31:06;12.30;99.90
34568;DHT22;20806;50.746;7.116;2023-03-19T06:33:32;12.40;99.90
34568;DHT22;20806;50.746;7.116;2023-03-19T06:35:58;12.50;99.90
34568;DHT22;20806;50.746;7.116;2023-03-19T06:38:23;12.50;99.90
34568;DHT22;20806;50.746;7.116;2023-03-19T06:40:49;12.50;99.90
34568;DHT22;20806;50.746;7.116;2023-03-19T06:43:14;12.60;99.90
34568;DHT22;20806;50.746;7.116;2023-03-19T06:45:40;12.70;99.90
34568;DHT22;20806;50.746;7.116;2023-03-19T06:48:05;12.70;99.90
34568;DHT22;20806;50.746;7.116;2023-03-19T06:50:31;12.70;99.90
34568;DHT22;20806;50.746;7.116;2023-03-19T06:52:56;12.80;99.90
34568;DHT22;20806;50.746;7.116;2023-03-19T06:55:27;12.80;99.90
34568;DHT22;20806;50.746;7.116;2023-03-19T06:57:55;12.90;99.90
34568;DHT22;20806;50.746;7.116;2023-03-19T07:00:21;12.90;99.90
34568;DHT22;20806;50.746;7.116;2023-03-19T07:02:46;13.00;99.90
34568;DHT22;20806;50.746;7.116;2023-03-19T07:05:12;13.00;99.90
34568;DHT22;20806;50.746;7.116;2023-03-19T07:07:37;13.00;99.90
34568;DHT22;20806;50.746;7.116;2023-03-19T07:10:03;13.10;99.90
34568;DHT22;20806;50.746;7.116;2023-03-19T07:12:28;13.10;99.90
34568;DHT22;20806;50.746;7.116;2023-03-19T07:14:54;13.20;99.90
34568;DHT22;20806;50.746;7.116;2023-03-19T07:17:21;13.20;99.90
34568;DHT22;20806;50.746;7.116;2023-03-19T07:19:46;13.20;99.90
34568;DHT22;20806;50.746;7.116;2023-03-19T07:22:12;13.30;99.90
34568;DHT22;20806;50.746;7.116;2023-03-19T07:24:37;13.30;99.90
34568;DHT22;20806;50.746;7.116;2023-03-19T07:27:03;13.30;99.90
34568;DHT22;20806;50.746;7.116;2023-03-19T07:29:28;13.30;99.90
34568;DHT22;20806;50.746;7.116;2023-03-19T07:31:54;13.40;99.90
34568;DHT22;20806;50.746;7.116;2023-03-19T07:34:20;13.40;99.90
34568;DHT22;20806;50.746;7.116;2023-03-19T07:36:46;13.40;99.90
34568;DHT22;20806;50.746;7.116;2023-03-19T07:39:11;13.50;99.90
34568;DHT22;20806;50.746;7.116;2023-03-19T07:41:37;13.50;99.90
34568;DHT22;20806;50.746;7.116;2023-03-19T07:44:02;13.60;99.90
34568;DHT22;20806;50.746;7.116;2023-03-19T07:46:28;13.60;99.90
34568;DHT22;20806;50.746;7.116;2023-03-19T07:48:53;13.70;99.90
34568;DHT22;20806;50.746;7.116;2023-03-19T07:51:21;13.70;99.90
34568;DHT22;20806;50.746;7.116;2023-03-19T07:53:47;13.70;99.90
34568;DHT22;20806;50.746;7.116;2023-03-19T07:56:18;13.70;99.90
34568;DHT22;20806;50.746;7.116;2023-03-19T07:58:43;13.80;99.90
34568;DHT22;20806;50.746;7.116;2023-03-19T08:01:09;13.80;99.90
34568;DHT22;20806;50.746;7.116;2023-03-19T08:03:35;13.80;99.90
34568;DHT22;20806;50.746;7.116;2023-03-19T08:06:00;13.90;99.90
34568;DHT22;20806;50.746;7.116;2023-03-19T08:08:26;14.00;99.90
34568;DHT22;20806;50.746;7.116;2023-03-19T08:10:52;14.00;99.90
34568;DHT22;20806;50.746;7.116;2023-03-19T08:13:18;14.10;99.90
34568;DHT22;20806;50.746;7.116;2023-03-19T08:15:44;14.10;99.90
34568;DHT22;20806;50.746;7.116;2023-03-19T08:18:09;14.20;99.90
34568;DHT22;20806;50.746;7.116;2023-03-19T08:20:35;14.10;99.90
34568;DHT22;20806;50.746;7.116;2023-03-19T08:23:01;14.20;99.90
34568;DHT22;20806;50.746;7.116;2023-03-19T08:25:27;14.20;99.90
34568;DHT22;20806;50.746;7.116;2023-03-19T08:27:57;14.20;99.90
34568;DHT22;20806;50.746;7.116;2023-03-19T08:30:22;14.30;99.90
34568;DHT22;20806;50.746;7.116;2023-03-19T08:32:48;14.30;99.90
34568;DHT22;20806;50.746;7.116;2023-03-19T08:35:14;14.30;99.90
34568;DHT22;20806;50.746;7.116;2023-03-19T08:37:40;14.40;99.90
34568;DHT22;20806;50.746;7.116;2023-03-19T08:40:06;14.50;99.90
34568;DHT22;20806;50.746;7.116;2023-03-19T08:42:31;14.50;99.90
34568;DHT22;20806;50.746;7.116;2023-03-19T08:44:57;14.50;99.90
34568;DHT22;20806;50.746;7.116;2023-03-19T08:47:22;14.50;99.90
34568;DHT22;20806;50.746;7.116;2023-03-19T08:49:51;14.50;99.90
34568;DHT22;20806;50.746;7.116;2023-03-19T08:52:20;14.50;99.90
34568;DHT22;20806;50.746;7.116;2023-03-19T08:54:46;14.60;99.90
34568;DHT22;20806;50.746;7.116;2023-03-19T08:57:16;14.60;99.90
34568;DHT22;20806;50.746;7.116;2023-03-19T08:59:42;14.60;99.90
34568;DHT22;20806;50.746;7.116;2023-03-19T09:02:09;14.60;99.90
34568;DHT22;20806;50.746;7.116;2023-03-19T09:04:34;14.50;99.90
34568;DHT22;20806;50.746;7.116;2023-03-19T09:07:08;14.50;99.90
34568;DHT22;20806;50.746;7.116;2023-03-19T09:09:38;14.40;99.90
34568;DHT22;20806;50.746;7.116;2023-03-19T09:12:03;14.40;99.90
34568;DHT22;20806;50.746;7.116;2023-03-19T09:14:30;14.40;99.90
34568;DHT22;20806;50.746;7.116;2023-03-19T09:16:55;14.40;99.90
34568;DHT22;20806;50.746;7.116;2023-03-19T09:19:21;14.30;99.90
34568;DHT22;20806;50.746;7.116;2023-03-19T09:21:47;14.20;99.90
34568;DHT22;20806;50.746;7.116;2023-03-19T09:24:13;14.20;99.90
34568;DHT22;20806;50.746;7.116;2023-03-19T09:26:38;14.10;99.90
34568;DHT22;20806;50.746;7.116;2023-03-19T09:29:04;14.10;99.90
34568;DHT22;20806;50.746;7.116;2023-03-19T09:31:30;14.00;99.90
34568;DHT22;20806;50.746;7.116;2023-03-19T09:33:55;14.00;99.90
34568;DHT22;20806;50.746;7.116;2023-03-19T09:36:21;14.10;99.90
34568;DHT22;20806;50.746;7.116;2023-03-19T09:38:46;14.20;99.90
34568;DHT22;20806;50.746;7.116;2023-03-19T09:43:57;14.50;99.90
34568;DHT22;20806;50.746;7.116;2023-03-19T09:46:25;14.60;99.90
34568;DHT22;20806;50.746;7.116;2023-03-19T09:48:53;14.70;99.90
34568;DHT22;20806;50.746;7.116;2023-03-19T09:51:22;14.70;99.90
34568;DHT22;20806;50.746;7.116;2023-03-19T09:53:55;14.70;99.90
34568;DHT22;20806;50.746;7.116;2023-03-19T09:56:21;14.70;99.90
34568;DHT22;20806;50.746;7.116;2023-03-19T09:58:47;14.70;99.90
34568;DHT22;20806;50.746;7.116;2023-03-19T10:01:19;14.70;99.90
34568;DHT22;20806;50.746;7.116;2023-03-19T10:11:22;14.90;99.90
34568;DHT22;20806;50.746;7.116;2023-03-19T10:13:52;15.00;99.90
34568;DHT22;20806;50.746;7.116;2023-03-19T10:16:21;15.00;99.90
34568;DHT22;20806;50.746;7.116;2023-03-19T10:18:49;15.10;99.90
34568;DHT22;20806;50.746;7.116;2023-03-19T10:21:19;15.20;99.90
34568;DHT22;20806;50.746;7.116;2023-03-19T10:23:56;15.20;99.90
34568;DHT22;20806;50.746;7.116;2023-03-19T10:26:31;15.30;99.90
34568;DHT22;20806;50.746;7.116;2023-03-19T10:29:07;15.40;99.90
34568;DHT22;20806;50.746;7.116;2023-03-19T10:31:37;15.50;99.90
34568;DHT22;20806;50.746;7.116;2023-03-19T10:36:49;15.80;99.90
34568;DHT22;20806;50.746;7.116;2023-03-19T10:39:22;15.80;99.90
34568;DHT22;20806;50.746;7.116;2023-03-19T10:44:33;15.80;99.90
34568;DHT22;20806;50.746;7.116;2023-03-19T10:47:08;15.80;99.90
34568;DHT22;20806;50.746;7.116;2023-03-19T10:49:35;15.90;99.90
34568;DHT22;20806;50.746;7.116;2023-03-19T10:52:01;15.80;99.90
34568;DHT22;20806;50.746;7.116;2023-03-19T10:54:26;15.70;99.90
34568;DHT22;20806;50.746;7.116;2023-03-19T10:56:57;15.60;99.90
34568;DHT22;20806;50.746;7.116;2023-03-19T10:59:24;15.50;99.90
34568;DHT22;20806;50.746;7.116;2023-03-19T11:01:54;15.40;99.90
34568;DHT22;20806;50.746;7.116;2023-03-19T11:04:20;15.50;99.90
34568;DHT22;20806;50.746;7.116;2023-03-19T11:06:50;15.40;99.90
34568;DHT22;20806;50.746;7.116;2023-03-19T11:09:25;15.30;99.90
34568;DHT22;20806;50.746;7.116;2023-03-19T11:11:56;15.30;99.90
34568;DHT22;20806;50.746;7.116;2023-03-19T11:14:35;15.20;99.90
34568;DHT22;20806;50.746;7.116;2023-03-19T11:19:47;15.20;99.90
34568;DHT22;20806;50.746;7.116;2023-03-19T11:22:14;15.30;99.90
34568;DHT22;20806;50.746;7.116;2023-03-19T11:24:43;15.40;99.90
34568;DHT22;20806;50.746;7.116;2023-03-19T11:27:12;15.50;99.90
34568;DHT22;20806;50.746;7.116;2023-03-19T11:29:41;15.50;99.90
34568;DHT22;20806;50.746;7.116;2023-03-19T11:34:36;15.70;99.90
34568;DHT22;20806;50.746;7.116;2023-03-19T11:39:54;15.90;99.90
34568;DHT22;20806;50.746;7.116;2023-03-19T11:47:29;16.20;99.90
34568;DHT22;20806;50.746;7.116;2023-03-19T11:50:05;16.40;99.90
34568;DHT22;20806;50.746;7.116;2023-03-19T11:55:37;16.60;99.90
34568;DHT22;20806;50.746;7.116;2023-03-19T12:00:57;16.70;99.90
34568;DHT22;20806;50.746;7.116;2023-03-19T12:03:45;16.80;99.90
34568;DHT22;20806;50.746;7.116;2023-03-19T12:11:34;17.10;99.90
34568;DHT22;20806;50.746;7.116;2023-03-19T12:14:19;17.10;99.90
34568;DHT22;20806;50.746;7.116;2023-03-19T12:16:53;17.10;99.90
34568;DHT22;20806;50.746;7.116;2023-03-19T12:27:18;17.00;99.90
34568;DHT22;20806;50.746;7.116;2023-03-19T12:35:10;17.00;99.90
34568;DHT22;20806;50.746;7.116;2023-03-19T12:37:42;17.00;99.90
34568;DHT22;20806;50.746;7.116;2023-03-19T12:42:58;16.70;99.90
34568;DHT22;20806;50.746;7.116;2023-03-19T12:45:37;16.70;99.90
34568;DHT22;20806;50.746;7.116;2023-03-19T12:48:12;16.80;99.90
34568;DHT22;20806;50.746;7.116;2023-03-19T12:50:41;17.10;99.90
34568;DHT22;20806;50.746;7.116;2023-03-19T12:53:10;17.30;99.90
34568;DHT22;20806;50.746;7.116;2023-03-19T12:55:40;17.40;99.90
34568;DHT22;20806;50.746;7.116;2023-03-19T13:00:33;17.60;99.90
34568;DHT22;20806;50.746;7.116;2023-03-19T13:03:14;17.70;99.90
34568;DHT22;20806;50.746;7.116;2023-03-19T13:08:16;17.80;99.90
34568;DHT22;20806;50.746;7.116;2023-03-19T13:10:45;17.80;99.90
34568;DHT22;20806;50.746;7.116;2023-03-19T13:15:56;17.70;99.90
34568;DHT22;20806;50.746;7.116;2023-03-19T13:23:33;17.80;99.90
34568;DHT22;20806;50.746;7.116;2023-03-19T13:26:00;17.70;99.90
34568;DHT22;20806;50.746;7.116;2023-03-19T13:28:36;17.50;99.90
34568;DHT22;20806;50.746;7.116;2023-03-19T13:31:02;17.30;99.90
34568;DHT22;20806;50.746;7.116;2023-03-19T13:33:29;17.10;99.90
34568;DHT22;20806;50.746;7.116;2023-03-19T13:35:55;16.80;99.90
34568;DHT22;20806;50.746;7.116;2023-03-19T13:38:25;16.60;99.90
34568;DHT22;20806;50.746;7.116;2023-03-19T13:40:52;16.40;99.90
34568;DHT22;20806;50.746;7.116;2023-03-19T13:43:19;16.30;99.90
34568;DHT22;20806;50.746;7.116;2023-03-19T13:45:45;16.10;99.90
34568;DHT22;20806;50.746;7.116;2023-03-19T13:48:23;16.10;99.90
34568;DHT22;20806;50.746;7.116;2023-03-19T13:55:54;15.80;99.90
34568;DHT22;20806;50.746;7.116;2023-03-19T13:58:25;15.80;99.90
34568;DHT22;20806;50.746;7.116;2023-03-19T14:01:10;15.70;99.90
34568;DHT22;20806;50.746;7.116;2023-03-19T14:03:38;15.70;99.90
34568;DHT22;20806;50.746;7.116;2023-03-19T14:06:04;15.70;99.90
34568;DHT22;20806;50.746;7.116;2023-03-19T14:08:39;15.70;99.90
34568;DHT22;20806;50.746;7.116;2023-03-19T14:11:06;15.80;99.90
34568;DHT22;20806;50.746;7.116;2023-03-19T14:13:33;15.90;99.90
34568;DHT22;20806;50.746;7.116;2023-03-19T14:16:05;16.10;99.90
34568;DHT22;20806;50.746;7.116;2023-03-19T14:18:32;16.60;99.90
34568;DHT22;20806;50.746;7.116;2023-03-19T14:20:59;17.30;99.90
34568;DHT22;20806;50.746;7.116;2023-03-19T14:23:26;17.60;99.90
34568;DHT22;20806;50.746;7.116;2023-03-19T14:28:18;17.60;99.90
34568;DHT22;20806;50.746;7.116;2023-03-19T14:30:45;18.10;99.90
34568;DHT22;20806;50.746;7.116;2023-03-19T14:33:17;18.50;99.90
34568;DHT22;20806;50.746;7.116;2023-03-19T14:35:44;18.80;99.90
34568;DHT22;20806;50.746;7.116;2023-03-19T14:38:12;19.20;99.90
34568;DHT22;20806;50.746;7.116;2023-03-19T14:40:42;19.10;99.90
34568;DHT22;20806;50.746;7.116;2023-03-19T14:48:14;18.40;99.90
34568;DHT22;20806;50.746;7.116;2023-03-19T14:53:37;18.30;99.90
34568;DHT22;20806;50.746;7.116;2023-03-19T14:56:12;18.60;99.90
34568;DHT22;20806;50.746;7.116;2023-03-19T14:58:46;19.30;99.90
34568;DHT22;20806;50.746;7.116;2023-03-19T15:01:11;20.20;99.90
34568;DHT22;20806;50.746;7.116;2023-03-19T15:03:37;20.90;99.90
34568;DHT22;20806;50.746;7.116;2023-03-19T15:06:03;21.20;99.90
34568;DHT22;20806;50.746;7.116;2023-03-19T15:08:30;21.40;99.90
34568;DHT22;20806;50.746;7.116;2023-03-19T15:10:59;21.50;99.90
34568;DHT22;20806;50.746;7.116;2023-03-19T15:13:46;21.10;99.90
34568;DHT22;20806;50.746;7.116;2023-03-19T15:18:50;20.00;99.90
34568;DHT22;20806;50.746;7.116;2023-03-19T15:21:16;19.60;99.90
34568;DHT22;20806;50.746;7.116;2023-03-19T15:23:44;19.30;99.90
34568;DHT22;20806;50.746;7.116;2023-03-19T15:26:09;19.00;99.90
34568;DHT22;20806;50.746;7.116;2023-03-19T15:31:11;18.50;99.90
34568;DHT22;20806;50.746;7.116;2023-03-19T15:33:37;18.30;99.90
34568;DHT22;20806;50.746;7.116;2023-03-19T15:38:30;18.00;99.90
34568;DHT22;20806;50.746;7.116;2023-03-19T15:40:59;17.80;99.90
34568;DHT22;20806;50.746;7.116;2023-03-19T15:43:26;17.80;99.90
34568;DHT22;20806;50.746;7.116;2023-03-19T15:45:51;17.50;99.90
34568;DHT22;20806;50.746;7.116;2023-03-19T15:48:19;17.40;99.90
34568;DHT22;20806;50.746;7.116;2023-03-19T15:50:46;17.30;99.90
34568;DHT22;20806;50.746;7.116;2023-03-19T15:53:14;17.10;99.90
34568;DHT22;20806;50.746;7.116;2023-03-19T15:55:41;17.00;99.90
34568;DHT22;20806;50.746;7.116;2023-03-19T15:58:08;16.80;99.90
34568;DHT22;20806;50.746;7.116;2023-03-19T16:00:36;16.70;99.90
34568;DHT22;20806;50.746;7.116;2023-03-19T16:03:03;16.60;99.90
34568;DHT22;20806;50.746;7.116;2023-03-19T16:05:29;16.50;99.90
34568;DHT22;20806;50.746;7.116;2023-03-19T16:07:59;16.40;99.90
34568;DHT22;20806;50.746;7.116;2023-03-19T16:10:40;16.40;99.90
34568;DHT22;20806;50.746;7.116;2023-03-19T16:15:44;16.30;99.90
34568;DHT22;20806;50.746;7.116;2023-03-19T16:20:43;16.10;99.90
34568;DHT22;20806;50.746;7.116;2023-03-19T16:23:13;16.10;99.90
34568;DHT22;20806;50.746;7.116;2023-03-19T16:25:42;15.90;99.90
34568;DHT22;20806;50.746;7.116;2023-03-19T16:28:13;15.80;99.90
34568;DHT22;20806;50.746;7.116;2023-03-19T16:30:44;15.70;99.90
34568;DHT22;20806;50.746;7.116;2023-03-19T16:33:10;15.60;99.90
34568;DHT22;20806;50.746;7.116;2023-03-19T16:35:36;15.50;99.90
34568;DHT22;20806;50.746;7.116;2023-03-19T16:38:44;15.40;99.90
34568;DHT22;20806;50.746;7.116;2023-03-19T16:41:15;15.40;99.90
34568;DHT22;20806;50.746;7.116;2023-03-19T16:43:44;15.30;99.90
34568;DHT22;20806;50.746;7.116;2023-03-19T16:46:11;15.20;99.90
34568;DHT22;20806;50.746;7.116;2023-03-19T16:48:39;15.20;99.90
34568;DHT22;20806;50.746;7.116;2023-03-19T16:51:12;15.00;99.90
34568;DHT22;20806;50.746;7.116;2023-03-19T16:53:38;15.00;99.90
34568;DHT22;20806;50.746;7.116;2023-03-19T16:56:04;14.90;99.90
34568;DHT22;20806;50.746;7.116;2023-03-19T16:58:33;14.90;99.90
34568;DHT22;20806;50.746;7.116;2023-03-19T17:01:00;14.80;99.90
34568;DHT22;20806;50.746;7.116;2023-03-19T17:03:26;14.80;99.90
34568;DHT22;20806;50.746;7.116;2023-03-19T17:05:54;14.70;99.90
34568;DHT22;20806;50.746;7.116;2023-03-19T17:08:20;14.60;99.90
34568;DHT22;20806;50.746;7.116;2023-03-19T17:10:48;14.50;99.90